sensor_id;sensor_type;location;lat;lon;timestamp;pressure;altitude;pressure_sealevel;temperature;humidity
54459;BME280;40368;49.350;8.152;2023-02-20T00:00:06;1013.4;;;13.1;55.57
54459;BME280;40368;49.350;8.152;2023-02-20T00:01:05;1013.4;;;13.13;55.5
54459;BME280;40368;49.350;8.152;2023-02-20T00:02:05;1013.4;;;13.14;54.88
54459;BME280;40368;49.350;8.152;2023-02-20T00:04:05;1013.4;;;13.08;55.4
54459;BME280;40368;49.350;8.152;2023-02-20T00:05:05;1013.5;;;13.05;55.33
54459;BME280;40368;49.350;8.152;2023-02-20T00:06:05;1013.5;;;13.03;54.79
54459;BME280;40368;49.350;8.152;2023-02-20T00:08:05;1013.5;;;12.98;55.52
54459;BME280;40368;49.350;8.152;2023-02-20T00:09:05;1013.6;;;13.03;55.62
54459;BME280;40368;49.350;8.152;2023-02-20T00:10:07;1013.6;;;13.04;55.45
54459;BME280;40368;49.350;8.152;2023-02-20T00:11:05;1013.6;;;13.07;55.59
54459;BME280;40368;49.350;8.152;2023-02-20T00:12:16;1013.6;;;13.09;55.6
54459;BME280;40368;49.350;8.152;2023-02-20T00:13:16;1013.6;;;13.13;55.61
54459;BME280;40368;49.350;8.152;2023-02-20T00:14:15;1013.7;;;13.16;55.6
54459;BME280;40368;49.350;8.152;2023-02-20T00:16:05;1013.7;;;13.17;55.52
54459;BME280;40368;49.350;8.152;2023-02-20T00:17:05;1013.6;;;13.19;55.58
54459;BME280;40368;49.350;8.152;2023-02-20T00:18:05;1013.7;;;13.2;55.55
54459;BME280;40368;49.350;8.152;2023-02-20T00:19:05;1013.7;;;13.19;55.62
54459;BME280;40368;49.350;8.152;2023-02-20T00:20:06;1013.7;;;13.2;55.7
54459;BME280;40368;49.350;8.152;2023-02-20T00:21:16;1013.7;;;13.21;55.69
54459;BME280;40368;49.350;8.152;2023-02-20T00:22:15;1013.7;;;13.21;55.74
54459;BME280;40368;49.350;8.152;2023-02-20T00:23:15;1013.6;;;13.21;55.62
54459;BME280;40368;49.350;8.152;2023-02-20T00:24:05;1013.6;;;13.2;55.61
54459;BME280;40368;49.350;8.152;2023-02-20T00:25:05;1013.6;;;13.21;55.62
54459;BME280;40368;49.350;8.152;2023-02-20T00:26:07;1013.6;;;13.2;55.65
54459;BME280;40368;49.350;8.152;2023-02-20T00:27:05;1013.6;;;13.19;55.66
54459;BME280;40368;49.350;8.152;2023-02-20T00:28:05;1013.6;;;13.19;55.63
54459;BME280;40368;49.350;8.152;2023-02-20T00:29:05;1013.6;;;13.19;55.62
54459;BME280;40368;49.350;8.152;2023-02-20T00:30:06;1013.5;;;13.2;55.55
54459;BME280;40368;49.350;8.152;2023-02-20T00:31:06;1013.5;;;13.18;55.64
54459;BME280;40368;49.350;8.152;2023-02-20T00:32:05;1013.5;;;13.19;55.54
54459;BME280;40368;49.350;8.152;2023-02-20T00:33:05;1013.5;;;13.18;55.43
54459;BME280;40368;49.350;8.152;2023-02-20T00:34:05;1013.5;;;13.16;55.66
54459;BME280;40368;49.350;8.152;2023-02-20T00:35:05;1013.4;;;13.15;55.78
54459;BME280;40368;49.350;8.152;2023-02-20T00:36:05;1013.5;;;13.15;55.6
54459;BME280;40368;49.350;8.152;2023-02-20T00:37:05;1013.5;;;13.15;55.71
54459;BME280;40368;49.350;8.152;2023-02-20T00:38:05;1013.5;;;13.14;55.73
54459;BME280;40368;49.350;8.152;2023-02-20T00:40:06;1013.5;;;13.14;55.66
54459;BME280;40368;49.350;8.152;2023-02-20T00:41:05;1013.5;;;13.12;55.47
54459;BME280;40368;49.350;8.152;2023-02-20T00:42:05;1013.5;;;13.11;55.45
54459;BME280;40368;49.350;8.152;2023-02-20T00:43:05;1013.5;;;13.06;55.81
54459;BME280;40368;49.350;8.152;2023-02-20T00:44:05;1013.5;;;13.03;55.43
54459;BME280;40368;49.350;8.152;2023-02-20T00:45:05;1013.5;;;12.99;55.62
54459;BME280;40368;49.350;8.152;2023-02-20T00:46:05;1013.4;;;12.96;55.55
54459;BME280;40368;49.350;8.152;2023-02-20T00:47:05;1013.5;;;12.97;55.54
54459;BME280;40368;49.350;8.152;2023-02-20T00:48:05;1013.4;;;12.97;55.67
54459;BME280;40368;49.350;8.152;2023-02-20T00:49:05;1013.5;;;12.98;55.61
54459;BME280;40368;49.350;8.152;2023-02-20T00:50:06;1013.4;;;12.99;55.73
54459;BME280;40368;49.350;8.152;2023-02-20T00:51:05;1013.4;;;13;55.73
54459;BME280;40368;49.350;8.152;2023-02-20T00:52:05;1013.4;;;12.99;55.74
54459;BME280;40368;49.350;8.152;2023-02-20T00:53:05;1013.3;;;12.99;55.8
54459;BME280;40368;49.350;8.152;2023-02-20T00:54:05;1013.3;;;12.98;55.71
54459;BME280;40368;49.350;8.152;2023-02-20T00:55:05;1013.3;;;12.99;55.83
54459;BME280;40368;49.350;8.152;2023-02-20T00:56:05;1013.3;;;12.97;55.66
54459;BME280;40368;49.350;8.152;2023-02-20T01:00:06;1013.3;;;12.97;55.79
54459;BME280;40368;49.350;8.152;2023-02-20T01:01:05;1013.3;;;12.96;55.7
54459;BME280;40368;49.350;8.152;2023-02-20T01:03:05;1013.2;;;12.97;55.6
54459;BME280;40368;49.350;8.152;2023-02-20T01:04:05;1013.2;;;12.97;55.79
54459;BME280;40368;49.350;8.152;2023-02-20T01:05:06;1013.2;;;12.97;55.76
54459;BME280;40368;49.350;8.152;2023-02-20T01:06:05;1013.2;;;12.95;55.8
54459;BME280;40368;49.350;8.152;2023-02-20T01:08:05;1013.2;;;12.94;55.66
54459;BME280;40368;49.350;8.152;2023-02-20T01:09:15;1013.2;;;12.92;55.87
54459;BME280;40368;49.350;8.152;2023-02-20T01:10:16;1013.1;;;12.91;55.9
54459;BME280;40368;49.350;8.152;2023-02-20T01:11:16;1013.2;;;12.9;55.94
54459;BME280;40368;49.350;8.152;2023-02-20T01:12:16;1013.1;;;12.87;55.69
54459;BME280;40368;49.350;8.152;2023-02-20T01:13:05;1013.2;;;12.84;55.7
54459;BME280;40368;49.350;8.152;2023-02-20T01:14:05;1013.1;;;12.81;55.86
54459;BME280;40368;49.350;8.152;2023-02-20T01:15:06;1013.2;;;12.82;55.97
54459;BME280;40368;49.350;8.152;2023-02-20T01:16:05;1013.1;;;12.82;56.01
54459;BME280;40368;49.350;8.152;2023-02-20T01:17:05;1013.2;;;12.82;55.86
54459;BME280;40368;49.350;8.152;2023-02-20T01:18:05;1013.2;;;12.81;55.81
54459;BME280;40368;49.350;8.152;2023-02-20T01:19:05;1013.3;;;12.81;55.83
54459;BME280;40368;49.350;8.152;2023-02-20T01:20:06;1013.3;;;12.82;56.06
54459;BME280;40368;49.350;8.152;2023-02-20T01:21:05;1013.3;;;12.8;55.96
54459;BME280;40368;49.350;8.152;2023-02-20T01:22:05;1013.2;;;12.79;56.04
54459;BME280;40368;49.350;8.152;2023-02-20T01:23:05;1013.3;;;12.79;56.03
54459;BME280;40368;49.350;8.152;2023-02-20T01:24:05;1013.2;;;12.77;55.98
54459;BME280;40368;49.350;8.152;2023-02-20T01:25:05;1013.2;;;12.78;55.93
54459;BME280;40368;49.350;8.152;2023-02-20T01:27:05;1013.2;;;12.77;56.09
54459;BME280;40368;49.350;8.152;2023-02-20T01:28:05;1013.1;;;12.75;56.05
54459;BME280;40368;49.350;8.152;2023-02-20T01:29:05;1013.1;;;12.76;55.97
54459;BME280;40368;49.350;8.152;2023-02-20T01:30:06;1013.1;;;12.76;56.2
54459;BME280;40368;49.350;8.152;2023-02-20T01:31:06;1013.1;;;12.76;55.98
54459;BME280;40368;49.350;8.152;2023-02-20T01:32:05;1013.1;;;12.74;56.21
54459;BME280;40368;49.350;8.152;2023-02-20T01:33:05;1013.1;;;12.75;56.14
54459;BME280;40368;49.350;8.152;2023-02-20T01:34:05;1013.1;;;12.74;56.16
54459;BME280;40368;49.350;8.152;2023-02-20T01:35:05;1013.1;;;12.74;56.06
54459;BME280;40368;49.350;8.152;2023-02-20T01:36:05;1013.1;;;12.72;56.05
54459;BME280;40368;49.350;8.152;2023-02-20T01:37:05;1013;;;12.71;56.19
54459;BME280;40368;49.350;8.152;2023-02-20T01:38:05;1013;;;12.67;56.09
54459;BME280;40368;49.350;8.152;2023-02-20T01:39:05;1013;;;12.64;56.02
54459;BME280;40368;49.350;8.152;2023-02-20T01:40:06;1013;;;12.63;56.23
54459;BME280;40368;49.350;8.152;2023-02-20T01:41:06;1013;;;12.65;56.14
54459;BME280;40368;49.350;8.152;2023-02-20T01:42:06;1013;;;12.65;56.13
54459;BME280;40368;49.350;8.152;2023-02-20T01:43:05;1013;;;12.65;56.17
54459;BME280;40368;49.350;8.152;2023-02-20T01:44:07;1013;;;12.66;56.24
54459;BME280;40368;49.350;8.152;2023-02-20T01:45:38;1012.9;;;12.64;56
54459;BME280;40368;49.350;8.152;2023-02-20T01:47:06;1013.1;;;12.64;56.21
54459;BME280;40368;49.350;8.152;2023-02-20T01:47:11;1013;;;12.64;56.06
54459;BME280;40368;49.350;8.152;2023-02-20T01:48:05;1013;;;12.65;56.16
54459;BME280;40368;49.350;8.152;2023-02-20T01:49:07;1013.1;;;12.66;56.05
54459;BME280;40368;49.350;8.152;2023-02-20T01:50:05;1013.1;;;12.66;56.15
54459;BME280;40368;49.350;8.152;2023-02-20T01:51:05;1013;;;12.64;56.23
54459;BME280;40368;49.350;8.152;2023-02-20T01:52:07;1012.9;;;12.64;56.21
54459;BME280;40368;49.350;8.152;2023-02-20T01:53:07;1013;;;12.65;56.05
54459;BME280;40368;49.350;8.152;2023-02-20T01:54:17;1012.9;;;12.64;56
54459;BME280;40368;49.350;8.152;2023-02-20T01:55:17;1012.9;;;12.64;55.94
54459;BME280;40368;49.350;8.152;2023-02-20T01:56:16;1012.9;;;12.63;56.04
54459;BME280;40368;49.350;8.152;2023-02-20T01:57:06;1013;;;12.61;56.09
54459;BME280;40368;49.350;8.152;2023-02-20T01:58:08;1013;;;12.6;56.06
54459;BME280;40368;49.350;8.152;2023-02-20T02:00:06;1012.9;;;12.58;56
54459;BME280;40368;49.350;8.152;2023-02-20T02:01:05;1012.9;;;12.58;56.09
54459;BME280;40368;49.350;8.152;2023-02-20T02:02:05;1012.9;;;12.57;56
54459;BME280;40368;49.350;8.152;2023-02-20T02:03:06;1012.8;;;12.58;56.04
54459;BME280;40368;49.350;8.152;2023-02-20T02:04:06;1012.8;;;12.58;56.02
54459;BME280;40368;49.350;8.152;2023-02-20T02:05:06;1012.9;;;12.56;55.84
54459;BME280;40368;49.350;8.152;2023-02-20T02:06:06;1012.9;;;12.54;55.97
54459;BME280;40368;49.350;8.152;2023-02-20T02:07:06;1012.9;;;12.52;56.08
54459;BME280;40368;49.350;8.152;2023-02-20T02:08:06;1013;;;12.53;56.13
54459;BME280;40368;49.350;8.152;2023-02-20T02:09:07;1012.9;;;12.52;55.97
54459;BME280;40368;49.350;8.152;2023-02-20T02:10:06;1013;;;12.51;55.92
54459;BME280;40368;49.350;8.152;2023-02-20T02:11:06;1013;;;12.5;56.02
54459;BME280;40368;49.350;8.152;2023-02-20T02:12:07;1012.9;;;12.49;55.81
54459;BME280;40368;49.350;8.152;2023-02-20T02:13:05;1012.9;;;12.48;56.08
54459;BME280;40368;49.350;8.152;2023-02-20T02:14:06;1012.8;;;12.48;56.04
54459;BME280;40368;49.350;8.152;2023-02-20T02:15:11;1012.9;;;12.47;56.11
54459;BME280;40368;49.350;8.152;2023-02-20T02:16:07;1012.9;;;12.46;56.2
54459;BME280;40368;49.350;8.152;2023-02-20T02:17:12;1012.9;;;12.46;55.94
54459;BME280;40368;49.350;8.152;2023-02-20T02:18:40;1012.9;;;12.45;55.97
54459;BME280;40368;49.350;8.152;2023-02-20T02:19:06;1012.9;;;12.44;55.81
54459;BME280;40368;49.350;8.152;2023-02-20T02:20:45;1012.9;;;12.42;56.17
54459;BME280;40368;49.350;8.152;2023-02-20T02:22:26;1012.9;;;12.41;56.2
54459;BME280;40368;49.350;8.152;2023-02-20T02:23:13;1012.9;;;12.4;56.28
54459;BME280;40368;49.350;8.152;2023-02-20T02:24:16;1012.9;;;12.38;55.99
54459;BME280;40368;49.350;8.152;2023-02-20T02:25:23;1012.9;;;12.37;56.03
54459;BME280;40368;49.350;8.152;2023-02-20T02:26:09;1012.9;;;12.35;55.83
54459;BME280;40368;49.350;8.152;2023-02-20T02:27:16;1012.9;;;12.34;56.01
54459;BME280;40368;49.350;8.152;2023-02-20T02:29:09;1012.9;;;12.33;56.1
54459;BME280;40368;49.350;8.152;2023-02-20T02:29:16;1012.9;;;12.33;56.2
54459;BME280;40368;49.350;8.152;2023-02-20T02:30:25;1012.9;;;12.32;56.03
54459;BME280;40368;49.350;8.152;2023-02-20T02:31:11;1012.9;;;12.31;56.21
54459;BME280;40368;49.350;8.152;2023-02-20T02:32:25;1012.9;;;12.32;56.23
54459;BME280;40368;49.350;8.152;2023-02-20T02:33:09;1012.9;;;12.33;56.12
54459;BME280;40368;49.350;8.152;2023-02-20T02:34:13;1012.9;;;12.33;56.07
54459;BME280;40368;49.350;8.152;2023-02-20T02:35:17;1012.9;;;12.34;56.35
54459;BME280;40368;49.350;8.152;2023-02-20T02:36:41;1012.9;;;12.33;56.26
54459;BME280;40368;49.350;8.152;2023-02-20T02:37:07;1012.9;;;12.34;56.15
54459;BME280;40368;49.350;8.152;2023-02-20T02:38:07;1012.9;;;12.34;56.04
54459;BME280;40368;49.350;8.152;2023-02-20T02:39:07;1012.9;;;12.34;56.13
54459;BME280;40368;49.350;8.152;2023-02-20T02:40:07;1012.9;;;12.33;56.05
54459;BME280;40368;49.350;8.152;2023-02-20T02:41:06;1012.8;;;12.32;56.12
54459;BME280;40368;49.350;8.152;2023-02-20T02:42:07;1012.8;;;12.32;56.08
54459;BME280;40368;49.350;8.152;2023-02-20T02:43:07;1012.8;;;12.31;56.19
54459;BME280;40368;49.350;8.152;2023-02-20T02:44:06;1012.8;;;12.29;56.24
54459;BME280;40368;49.350;8.152;2023-02-20T02:45:07;1012.8;;;12.29;56.16
54459;BME280;40368;49.350;8.152;2023-02-20T02:46:06;1012.8;;;12.28;56.37
54459;BME280;40368;49.350;8.152;2023-02-20T02:47:06;1012.8;;;12.27;56.23
54459;BME280;40368;49.350;8.152;2023-02-20T02:48:07;1012.7;;;12.23;56.33
54459;BME280;40368;49.350;8.152;2023-02-20T02:50:07;1012.7;;;12.17;56.26
54459;BME280;40368;49.350;8.152;2023-02-20T02:51:07;1012.7;;;12.16;56.11
54459;BME280;40368;49.350;8.152;2023-02-20T02:52:05;1012.7;;;12.16;56.53
54459;BME280;40368;49.350;8.152;2023-02-20T02:53:06;1012.7;;;12.16;56.28
54459;BME280;40368;49.350;8.152;2023-02-20T02:54:06;1012.6;;;12.16;56.5
54459;BME280;40368;49.350;8.152;2023-02-20T02:55:06;1012.6;;;12.15;56.45
54459;BME280;40368;49.350;8.152;2023-02-20T02:56:05;1012.6;;;12.15;56.44
54459;BME280;40368;49.350;8.152;2023-02-20T02:57:22;1012.5;;;12.16;56.38
54459;BME280;40368;49.350;8.152;2023-02-20T02:58:05;1012.6;;;12.16;56.49
54459;BME280;40368;49.350;8.152;2023-02-20T02:59:06;1012.5;;;12.15;56.14
54459;BME280;40368;49.350;8.152;2023-02-20T03:00:07;1012.6;;;12.12;56.37
54459;BME280;40368;49.350;8.152;2023-02-20T03:01:05;1012.5;;;12.11;56.35
54459;BME280;40368;49.350;8.152;2023-02-20T03:02:06;1012.6;;;12.13;56.44
54459;BME280;40368;49.350;8.152;2023-02-20T03:03:11;1012.6;;;12.13;56.3
54459;BME280;40368;49.350;8.152;2023-02-20T03:04:05;1012.6;;;12.11;56.43
54459;BME280;40368;49.350;8.152;2023-02-20T03:05:05;1012.5;;;12.07;56.24
54459;BME280;40368;49.350;8.152;2023-02-20T03:06:06;1012.5;;;12.05;56.56
54459;BME280;40368;49.350;8.152;2023-02-20T03:07:06;1012.5;;;12.04;56.67
54459;BME280;40368;49.350;8.152;2023-02-20T03:08:06;1012.5;;;12;56.02
54459;BME280;40368;49.350;8.152;2023-02-20T03:09:05;1012.5;;;11.94;56.69
54459;BME280;40368;49.350;8.152;2023-02-20T03:10:06;1012.5;;;11.93;56.75
54459;BME280;40368;49.350;8.152;2023-02-20T03:11:06;1012.6;;;11.94;56.83
54459;BME280;40368;49.350;8.152;2023-02-20T03:12:05;1012.5;;;11.91;56.58
54459;BME280;40368;49.350;8.152;2023-02-20T03:13:05;1012.5;;;11.9;56.49
54459;BME280;40368;49.350;8.152;2023-02-20T03:14:06;1012.5;;;11.89;56.87
54459;BME280;40368;49.350;8.152;2023-02-20T03:15:06;1012.6;;;11.9;56.83
54459;BME280;40368;49.350;8.152;2023-02-20T03:16:05;1012.6;;;11.88;56.69
54459;BME280;40368;49.350;8.152;2023-02-20T03:17:07;1012.5;;;11.84;57.08
54459;BME280;40368;49.350;8.152;2023-02-20T03:19:05;1012.5;;;11.86;56.96
54459;BME280;40368;49.350;8.152;2023-02-20T03:20:07;1012.6;;;11.83;57.26
54459;BME280;40368;49.350;8.152;2023-02-20T03:21:06;1012.5;;;11.83;57.2
54459;BME280;40368;49.350;8.152;2023-02-20T03:22:06;1012.6;;;11.85;57.19
54459;BME280;40368;49.350;8.152;2023-02-20T03:23:05;1012.5;;;11.87;57.17
54459;BME280;40368;49.350;8.152;2023-02-20T03:24:05;1012.5;;;11.89;56.97
54459;BME280;40368;49.350;8.152;2023-02-20T03:25:07;1012.5;;;11.91;56.37
54459;BME280;40368;49.350;8.152;2023-02-20T03:26:06;1012.5;;;11.87;56.98
54459;BME280;40368;49.350;8.152;2023-02-20T03:27:05;1012.5;;;11.87;57.07
54459;BME280;40368;49.350;8.152;2023-02-20T03:28:06;1012.5;;;11.9;57.03
54459;BME280;40368;49.350;8.152;2023-02-20T03:29:06;1012.5;;;11.89;56.85
54459;BME280;40368;49.350;8.152;2023-02-20T03:30:06;1012.5;;;11.89;56.93
54459;BME280;40368;49.350;8.152;2023-02-20T03:31:06;1012.4;;;11.89;56.89
54459;BME280;40368;49.350;8.152;2023-02-20T03:32:06;1012.4;;;11.89;56.92
54459;BME280;40368;49.350;8.152;2023-02-20T03:33:06;1012.3;;;11.91;56.79
54459;BME280;40368;49.350;8.152;2023-02-20T03:34:07;1012.3;;;11.87;56.77
54459;BME280;40368;49.350;8.152;2023-02-20T03:35:05;1012.3;;;11.85;56.99
54459;BME280;40368;49.350;8.152;2023-02-20T03:36:06;1012.3;;;11.85;56.91
54459;BME280;40368;49.350;8.152;2023-02-20T03:37:06;1012.3;;;11.86;57.02
54459;BME280;40368;49.350;8.152;2023-02-20T03:38:05;1012.3;;;11.89;57.04
54459;BME280;40368;49.350;8.152;2023-02-20T03:39:06;1012.3;;;11.92;56.9
54459;BME280;40368;49.350;8.152;2023-02-20T03:40:06;1012.4;;;11.93;56.85
54459;BME280;40368;49.350;8.152;2023-02-20T03:41:05;1012.3;;;11.94;56.93
54459;BME280;40368;49.350;8.152;2023-02-20T03:43:06;1012.4;;;11.95;56.73
54459;BME280;40368;49.350;8.152;2023-02-20T03:44:05;1012.4;;;11.95;56.68
54459;BME280;40368;49.350;8.152;2023-02-20T03:45:05;1012.4;;;11.94;56.83
54459;BME280;40368;49.350;8.152;2023-02-20T03:46:06;1012.4;;;11.93;56.42
54459;BME280;40368;49.350;8.152;2023-02-20T03:47:06;1012.4;;;11.89;56.77
54459;BME280;40368;49.350;8.152;2023-02-20T03:48:07;1012.3;;;11.84;56.93
54459;BME280;40368;49.350;8.152;2023-02-20T03:49:06;1012.3;;;11.81;57.11
54459;BME280;40368;49.350;8.152;2023-02-20T03:50:06;1012.4;;;11.81;56.87
54459;BME280;40368;49.350;8.152;2023-02-20T03:51:05;1012.4;;;11.82;57.02
54459;BME280;40368;49.350;8.152;2023-02-20T03:52:05;1012.4;;;11.85;56.93
54459;BME280;40368;49.350;8.152;2023-02-20T03:53:05;1012.4;;;11.86;56.67
54459;BME280;40368;49.350;8.152;2023-02-20T03:54:05;1012.4;;;11.86;56.92
54459;BME280;40368;49.350;8.152;2023-02-20T03:55:05;1012.4;;;11.87;56.97
54459;BME280;40368;49.350;8.152;2023-02-20T03:56:06;1012.4;;;11.87;56.87
54459;BME280;40368;49.350;8.152;2023-02-20T03:58:06;1012.5;;;11.9;56.7
54459;BME280;40368;49.350;8.152;2023-02-20T03:59:07;1012.5;;;11.9;56.78
54459;BME280;40368;49.350;8.152;2023-02-20T04:00:06;1012.5;;;11.89;56.63
54459;BME280;40368;49.350;8.152;2023-02-20T04:01:05;1012.5;;;11.86;56.62
54459;BME280;40368;49.350;8.152;2023-02-20T04:02:06;1012.5;;;11.87;56.69
54459;BME280;40368;49.350;8.152;2023-02-20T04:03:06;1012.5;;;11.88;56.7
54459;BME280;40368;49.350;8.152;2023-02-20T04:04:05;1012.5;;;11.87;56.39
54459;BME280;40368;49.350;8.152;2023-02-20T04:05:06;1012.5;;;11.84;56.75
54459;BME280;40368;49.350;8.152;2023-02-20T04:06:06;1012.6;;;11.83;56.81
54459;BME280;40368;49.350;8.152;2023-02-20T04:07:07;1012.5;;;11.83;56.77
54459;BME280;40368;49.350;8.152;2023-02-20T04:08:07;1012.5;;;11.84;56.92
54459;BME280;40368;49.350;8.152;2023-02-20T04:09:06;1012.6;;;11.83;56.49
54459;BME280;40368;49.350;8.152;2023-02-20T04:10:06;1012.6;;;11.8;56.65
54459;BME280;40368;49.350;8.152;2023-02-20T04:11:07;1012.6;;;11.8;56.67
54459;BME280;40368;49.350;8.152;2023-02-20T04:12:07;1012.6;;;11.8;57.02
54459;BME280;40368;49.350;8.152;2023-02-20T04:13:05;1012.6;;;11.8;56.74
54459;BME280;40368;49.350;8.152;2023-02-20T04:14:05;1012.5;;;11.81;56.85
54459;BME280;40368;49.350;8.152;2023-02-20T04:15:05;1012.5;;;11.79;56.46
54459;BME280;40368;49.350;8.152;2023-02-20T04:16:05;1012.4;;;11.77;56.82
54459;BME280;40368;49.350;8.152;2023-02-20T04:17:06;1012.5;;;11.77;56.78
54459;BME280;40368;49.350;8.152;2023-02-20T04:19:05;1012.6;;;11.78;56.85
54459;BME280;40368;49.350;8.152;2023-02-20T04:20:05;1012.6;;;11.76;56.83
54459;BME280;40368;49.350;8.152;2023-02-20T04:21:06;1012.5;;;11.76;56.85
54459;BME280;40368;49.350;8.152;2023-02-20T04:22:06;1012.6;;;11.69;56.7
54459;BME280;40368;49.350;8.152;2023-02-20T04:24:06;1012.5;;;11.57;57.34
54459;BME280;40368;49.350;8.152;2023-02-20T04:25:29;1012.5;;;11.56;57.48
54459;BME280;40368;49.350;8.152;2023-02-20T04:26:16;1012.5;;;11.61;57.49
54459;BME280;40368;49.350;8.152;2023-02-20T04:27:16;1012.5;;;11.61;57
54459;BME280;40368;49.350;8.152;2023-02-20T04:28:16;1012.6;;;11.55;57.31
54459;BME280;40368;49.350;8.152;2023-02-20T04:29:05;1012.5;;;11.51;57.61
54459;BME280;40368;49.350;8.152;2023-02-20T04:30:05;1012.5;;;11.52;57.78
54459;BME280;40368;49.350;8.152;2023-02-20T04:31:05;1012.5;;;11.56;57.56
54459;BME280;40368;49.350;8.152;2023-02-20T04:32:05;1012.5;;;11.54;57.51
54459;BME280;40368;49.350;8.152;2023-02-20T04:33:05;1012.5;;;11.51;57.77
54459;BME280;40368;49.350;8.152;2023-02-20T04:34:05;1012.5;;;11.44;58.07
54459;BME280;40368;49.350;8.152;2023-02-20T04:35:06;1012.5;;;11.39;57.93
54459;BME280;40368;49.350;8.152;2023-02-20T04:36:16;1012.5;;;11.31;58.22
54459;BME280;40368;49.350;8.152;2023-02-20T04:37:16;1012.5;;;11.22;58.51
54459;BME280;40368;49.350;8.152;2023-02-20T04:38:16;1012.5;;;11.11;58.88
54459;BME280;40368;49.350;8.152;2023-02-20T04:39:05;1012.4;;;11.03;59.17
54459;BME280;40368;49.350;8.152;2023-02-20T04:40:05;1012.4;;;11;59.26
54459;BME280;40368;49.350;8.152;2023-02-20T04:41:05;1012.4;;;11.03;59.21
54459;BME280;40368;49.350;8.152;2023-02-20T04:44:05;1012.5;;;11.24;58.92
54459;BME280;40368;49.350;8.152;2023-02-20T04:45:05;1012.4;;;11.27;58.66
54459;BME280;40368;49.350;8.152;2023-02-20T04:46:26;1012.4;;;11.3;58.5
54459;BME280;40368;49.350;8.152;2023-02-20T04:47:26;1012.4;;;11.32;58.58
54459;BME280;40368;49.350;8.152;2023-02-20T04:48:26;1012.5;;;11.3;58.54
54459;BME280;40368;49.350;8.152;2023-02-20T04:49:16;1012.6;;;11.25;58.56
54459;BME280;40368;49.350;8.152;2023-02-20T04:50:06;1012.5;;;11.17;58.51
54459;BME280;40368;49.350;8.152;2023-02-20T04:51:05;1012.4;;;11.11;59.19
54459;BME280;40368;49.350;8.152;2023-02-20T04:52:05;1012.5;;;11.1;58.81
54459;BME280;40368;49.350;8.152;2023-02-20T04:53:05;1012.5;;;11.11;58.8
54459;BME280;40368;49.350;8.152;2023-02-20T04:54:05;1012.5;;;11.12;58.74
54459;BME280;40368;49.350;8.152;2023-02-20T04:56:05;1012.5;;;11.17;58.61
54459;BME280;40368;49.350;8.152;2023-02-20T04:57:05;1012.5;;;11.12;58.64
54459;BME280;40368;49.350;8.152;2023-02-20T04:58:05;1012.4;;;11.05;58.86
54459;BME280;40368;49.350;8.152;2023-02-20T05:00:06;1012.5;;;10.98;58.87
54459;BME280;40368;49.350;8.152;2023-02-20T05:01:05;1012.5;;;10.98;59.2
54459;BME280;40368;49.350;8.152;2023-02-20T05:02:05;1012.5;;;10.96;59.15
54459;BME280;40368;49.350;8.152;2023-02-20T05:04:05;1012.4;;;10.99;58.93
54459;BME280;40368;49.350;8.152;2023-02-20T05:05:06;1012.4;;;10.99;58.95
54459;BME280;40368;49.350;8.152;2023-02-20T05:06:05;1012.4;;;10.99;59.38
54459;BME280;40368;49.350;8.152;2023-02-20T05:07:05;1012.5;;;11.02;58.89
54459;BME280;40368;49.350;8.152;2023-02-20T05:08:06;1012.3;;;11.03;59
54459;BME280;40368;49.350;8.152;2023-02-20T05:09:05;1012.4;;;11.02;58.99
54459;BME280;40368;49.350;8.152;2023-02-20T05:10:05;1012.4;;;11.01;59.09
54459;BME280;40368;49.350;8.152;2023-02-20T05:11:05;1012.5;;;11.02;58.95
54459;BME280;40368;49.350;8.152;2023-02-20T05:12:05;1012.4;;;11.03;58.99
54459;BME280;40368;49.350;8.152;2023-02-20T05:13:05;1012.5;;;11.02;59.05
54459;BME280;40368;49.350;8.152;2023-02-20T05:14:05;1012.4;;;10.99;59.26
54459;BME280;40368;49.350;8.152;2023-02-20T05:16:05;1012.5;;;10.97;59.27
54459;BME280;40368;49.350;8.152;2023-02-20T05:17:05;1012.5;;;10.96;59.4
54459;BME280;40368;49.350;8.152;2023-02-20T05:18:05;1012.5;;;10.97;59.25
54459;BME280;40368;49.350;8.152;2023-02-20T05:19:06;1012.5;;;10.98;59.12
54459;BME280;40368;49.350;8.152;2023-02-20T05:20:06;1012.5;;;11.03;58.95
54459;BME280;40368;49.350;8.152;2023-02-20T05:21:05;1012.4;;;11.08;58.97
54459;BME280;40368;49.350;8.152;2023-02-20T05:22:07;1012.4;;;11.08;59
54459;BME280;40368;49.350;8.152;2023-02-20T05:23:05;1012.4;;;11.11;58.85
54459;BME280;40368;49.350;8.152;2023-02-20T05:24:05;1012.4;;;11.15;58.68
54459;BME280;40368;49.350;8.152;2023-02-20T05:25:06;1012.4;;;11.19;58.6
54459;BME280;40368;49.350;8.152;2023-02-20T05:26:07;1012.4;;;11.26;58.44
54459;BME280;40368;49.350;8.152;2023-02-20T05:28:05;1012.4;;;11.36;58.16
54459;BME280;40368;49.350;8.152;2023-02-20T05:29:16;1012.4;;;11.36;58.15
54459;BME280;40368;49.350;8.152;2023-02-20T05:30:16;1012.4;;;11.35;58.2
54459;BME280;40368;49.350;8.152;2023-02-20T05:31:16;1012.4;;;11.33;58.1
54459;BME280;40368;49.350;8.152;2023-02-20T05:32:16;1012.5;;;11.29;58.02
54459;BME280;40368;49.350;8.152;2023-02-20T05:33:05;1012.4;;;11.26;58.21
54459;BME280;40368;49.350;8.152;2023-02-20T05:35:05;1012.4;;;11.29;58.04
54459;BME280;40368;49.350;8.152;2023-02-20T05:36:05;1012.4;;;11.28;58.05
54459;BME280;40368;49.350;8.152;2023-02-20T05:37:05;1012.4;;;11.27;58.17
54459;BME280;40368;49.350;8.152;2023-02-20T05:38:05;1012.4;;;11.3;58.04
54459;BME280;40368;49.350;8.152;2023-02-20T05:40:05;1012.4;;;11.31;58.25
54459;BME280;40368;49.350;8.152;2023-02-20T05:42:28;1012.4;;;11.34;57.99
54459;BME280;40368;49.350;8.152;2023-02-20T05:43:29;1012.4;;;11.38;57.78
54459;BME280;40368;49.350;8.152;2023-02-20T05:44:31;1012.4;;;11.35;57.66
54459;BME280;40368;49.350;8.152;2023-02-20T05:45:43;1012.3;;;11.36;57.9
54459;BME280;40368;49.350;8.152;2023-02-20T05:46:15;1012.4;;;11.39;57.73
54459;BME280;40368;49.350;8.152;2023-02-20T05:47:26;1012.3;;;11.39;57.83
54459;BME280;40368;49.350;8.152;2023-02-20T05:48:27;1012.4;;;11.42;57.6
54459;BME280;40368;49.350;8.152;2023-02-20T05:49:09;1012.4;;;11.42;57.7
54459;BME280;40368;49.350;8.152;2023-02-20T05:50:26;1012.4;;;11.39;57.61
54459;BME280;40368;49.350;8.152;2023-02-20T05:51:20;1012.4;;;11.39;57.71
54459;BME280;40368;49.350;8.152;2023-02-20T05:52:26;1012.4;;;11.4;57.8
54459;BME280;40368;49.350;8.152;2023-02-20T05:53:16;1012.4;;;11.4;57.47
54459;BME280;40368;49.350;8.152;2023-02-20T05:54:05;1012.4;;;11.39;57.59
54459;BME280;40368;49.350;8.152;2023-02-20T05:56:05;1012.3;;;11.39;57.83
54459;BME280;40368;49.350;8.152;2023-02-20T05:57:05;1012.4;;;11.43;57.73